Time;durP1;ratioP1;P1;durP2;ratioP2;P2;SDS_P1;SDS_P2;PMS_P1;PMS_P2;Temp;Humidity;BMP_temperature;BMP_pressure;BME280_temperature;BME280_humidity;BME280_pressure;Samples;Min_cycle;Max_cycle;Signal;HPM_P1;HPM_P2
2023/06/27 00:00:27;;;;;;;4.13;3.67;;;;;;;-146.58;100.00;69501.63;5031660;28;20025;-68
2023/06/27 00:02:53;;;;;;;3.47;3.17;;;;;;;-146.58;100.00;69501.63;5029729;28;20049;-67
2023/06/27 00:05:18;;;;;;;4.80;3.88;;;;;;;-146.58;100.00;69501.63;5031940;28;20435;-67
2023/06/27 00:07:44;;;;;;;8.80;3.40;;;;;;;-146.58;100.00;69501.63;5031272;28;20026;-67
2023/06/27 00:10:11;;;;;;;5.90;3.40;;;;;;;-146.58;100.00;69501.63;5029081;28;20049;-67
2023/06/27 00:12:36;;;;;;;5.68;3.65;;;;;;;-146.58;100.00;69501.63;5031950;28;20082;-67
2023/06/27 00:15:06;;;;;;;6.32;2.78;;;;;;;-146.58;100.00;69501.63;5029680;28;20132;-67
2023/06/27 00:17:35;;;;;;;10.32;3.15;;;;;;;-146.58;100.00;69501.63;5031661;28;20029;-67
2023/06/27 00:20:02;;;;;;;4.43;3.33;;;;;;;-146.58;100.00;69501.63;5029833;28;20412;-67
2023/06/27 00:22:28;;;;;;;8.65;4.20;;;;;;;-146.58;100.00;69501.63;5031131;28;20056;-68
2023/06/27 00:24:53;;;;;;;6.82;3.70;;;;;;;-146.58;100.00;69501.63;5029948;28;20408;-67
2023/06/27 00:27:20;;;;;;;9.35;3.85;;;;;;;-146.58;100.00;69501.63;5031557;28;20061;-68
2023/06/27 00:29:45;;;;;;;6.97;4.30;;;;;;;-146.58;100.00;69501.63;5029319;28;20044;-68
2023/06/27 00:32:10;;;;;;;10.02;4.22;;;;;;;-146.58;100.00;69501.63;5031209;28;20025;-68
2023/06/27 00:34:36;;;;;;;6.32;3.75;;;;;;;-146.58;100.00;69501.63;5030010;28;20037;-68
2023/06/27 00:37:01;;;;;;;6.50;4.47;;;;;;;-146.58;100.00;69501.63;5030769;28;20022;-69
2023/06/27 00:39:28;;;;;;;6.03;4.38;;;;;;;-146.58;100.00;69501.63;5028732;28;20045;-68
2023/06/27 00:41:53;;;;;;;5.50;3.83;;;;;;;-146.58;100.00;69501.63;5030879;28;20032;-68
2023/06/27 00:44:18;;;;;;;5.50;5.00;;;;;;;-146.58;100.00;69501.63;5029306;28;20400;-68
2023/06/27 00:46:47;;;;;;;10.25;3.78;;;;;;;-146.58;100.00;69501.63;5031183;28;20030;-69
2023/06/27 00:49:12;;;;;;;;;;;;;;;-146.58;100.00;69501.63;5030395;28;20037;-68
2023/06/27 00:51:40;;;;;;;6.07;3.95;;;;;;;-146.58;100.00;69501.63;5030679;28;19920;-68
2023/06/27 00:54:06;;;;;;;6.33;4.93;;;;;;;-146.58;100.00;69501.63;5029476;28;20400;-68
2023/06/27 00:56:32;;;;;;;5.00;4.50;;;;;;;-146.58;100.00;69501.63;5029893;28;20048;-68
2023/06/27 00:59:00;;;;;;;7.93;6.13;;;;;;;-146.58;100.00;69501.63;5028760;28;20524;-68
2023/06/27 01:01:26;;;;;;;16.55;5.28;;;;;;;-146.58;100.00;69501.63;5030766;28;20409;-68
2023/06/27 01:03:52;;;;;;;16.65;5.78;;;;;;;-146.58;100.00;69501.63;5029019;28;20050;-68
2023/06/27 01:06:37;;;;;;;8.73;4.57;;;;;;;-146.58;100.00;69501.63;5030558;28;20191;-67
2023/06/27 01:09:08;;;;;;;5.25;4.75;;;;;;;-146.58;100.00;69501.63;5029358;28;20045;-67
2023/06/27 01:11:47;;;;;;;7.75;6.75;;;;;;;-146.58;100.00;69501.63;5030808;28;20026;-67
2023/06/27 01:14:16;;;;;;;13.77;5.00;;;;;;;-146.58;100.00;69501.63;5029227;28;20037;-69
2023/06/27 01:16:48;;;;;;;7.35;5.20;;;;;;;-146.58;100.00;69501.63;5030787;28;20024;-68
2023/06/27 01:19:19;;;;;;;8.00;4.78;;;;;;;-146.58;100.00;69501.63;5029438;28;20038;-67
2023/06/27 01:21:52;;;;;;;10.85;4.30;;;;;;;-146.58;100.00;69501.63;5032684;28;20041;-68
2023/06/27 01:24:18;;;;;;;6.85;5.88;;;;;;;-146.58;100.00;69501.63;5033511;28;20072;-68
2023/06/27 01:26:43;;;;;;;12.38;4.80;;;;;;;-146.58;100.00;69501.63;5034676;28;20029;-68
2023/06/27 01:29:11;;;;;;;8.98;6.00;;;;;;;-146.58;100.00;69501.63;5032863;28;20096;-68
2023/06/27 01:32:05;;;;;;;16.55;5.32;;;;;;;-146.58;100.00;69501.63;5034847;28;20423;-67
2023/06/27 01:34:42;;;;;;;5.32;4.82;;;;;;;-146.58;100.00;69501.63;5029949;28;20048;-68
2023/06/27 01:37:23;;;;;;;6.88;5.28;;;;;;;-146.58;100.00;69501.63;5034628;28;20022;-67
2023/06/27 01:39:59;;;;;;;12.18;6.50;;;;;;;-146.58;100.00;69501.63;5032729;28;20369;-67
2023/06/27 01:42:28;;;;;;;6.20;5.60;;;;;;;-146.58;100.00;69501.63;5034198;28;20068;-67
2023/06/27 01:44:54;;;;;;;8.50;6.10;;;;;;;-146.58;100.00;69501.63;5032961;28;20555;-67
2023/06/27 01:47:21;;;;;;;9.45;6.85;;;;;;;-146.58;100.00;69501.63;5034483;28;20032;-67
2023/06/27 01:49:47;;;;;;;10.63;6.25;;;;;;;-146.58;100.00;69501.63;5032263;28;20522;-67
2023/06/27 01:52:13;;;;;;;5.63;5.10;;;;;;;-146.58;100.00;69501.63;5034567;28;20108;-67
2023/06/27 01:54:43;;;;;;;9.35;6.15;;;;;;;-146.58;100.00;69501.63;5032725;28;20402;-67
2023/06/27 01:57:09;;;;;;;7.72;5.90;;;;;;;-146.58;100.00;69501.63;5033929;28;20036;-67
2023/06/27 01:59:35;;;;;;;6.35;5.68;;;;;;;-146.58;100.00;69501.63;5032952;28;20041;-67
2023/06/27 02:02:00;;;;;;;10.50;5.32;;;;;;;-146.58;100.00;69501.63;5033751;28;20092;-67
2023/06/27 02:04:25;;;;;;;10.63;5.93;;;;;;;-146.58;100.00;69501.63;5032264;28;20104;-66
2023/06/27 02:06:51;;;;;;;6.80;6.18;;;;;;;-146.58;100.00;69501.63;5033793;28;20033;-66
2023/06/27 02:09:16;;;;;;;11.23;6.95;;;;;;;-146.58;100.00;69501.63;5032646;28;20046;-66
2023/06/27 02:11:41;;;;;;;7.30;5.60;;;;;;;-146.58;100.00;69501.63;5033810;28;20018;-67
2023/06/27 02:14:07;;;;;;;6.70;5.43;;;;;;;-146.58;100.00;69501.63;5032275;28;20048;-67
2023/06/27 02:16:32;;;;;;;7.78;5.72;;;;;;;-146.58;100.00;69501.63;5033598;28;20024;-67
2023/06/27 02:18:57;;;;;;;8.75;5.30;;;;;;;-146.58;100.00;69501.63;5032244;28;20064;-67
2023/06/27 02:21:23;;;;;;;7.68;6.43;;;;;;;-146.58;100.00;69501.63;5033696;28;20029;-67
2023/06/27 02:23:48;;;;;;;8.25;6.97;;;;;;;-146.58;100.00;69501.63;5030571;28;20041;-67
2023/06/27 02:26:14;;;;;;;6.45;4.93;;;;;;;-146.58;100.00;69501.63;5033898;28;20025;-67
2023/06/27 02:28:39;;;;;;;8.57;5.80;;;;;;;-146.58;100.00;69501.63;5032052;28;20405;-67
2023/06/27 02:31:04;;;;;;;9.63;6.10;;;;;;;-146.58;100.00;69501.63;5033403;28;20026;-67
2023/06/27 02:33:30;;;;;;;13.95;6.93;;;;;;;-146.58;100.00;69501.63;5030996;28;20048;-67
2023/06/27 02:35:55;;;;;;;12.15;6.85;;;;;;;-146.58;100.00;69501.63;5032982;28;20033;-67
2023/06/27 02:38:21;;;;;;;7.28;5.80;;;;;;;-146.58;100.00;69501.63;5032265;28;20037;-67
2023/06/27 02:40:47;;;;;;;7.32;6.15;;;;;;;-146.58;100.00;69501.63;5033284;28;20017;-67
2023/06/27 02:43:12;;;;;;;9.65;7.28;;;;;;;-146.58;100.00;69501.63;5031616;28;20061;-67
2023/06/27 02:45:38;;;;;;;8.07;6.57;;;;;;;-146.58;100.00;69501.63;5033501;28;20026;-67
2023/06/27 02:48:04;;;;;;;25.15;7.68;;;;;;;-146.58;100.00;69501.63;5031803;28;20021;-66
2023/06/27 02:50:29;;;;;;;7.40;6.35;;;;;;;-146.58;100.00;69501.63;5032932;28;20017;-68
2023/06/27 02:52:54;;;;;;;8.35;6.75;;;;;;;-146.58;100.00;69501.63;5031286;28;20021;-68
2023/06/27 02:55:20;;;;;;;8.30;6.60;;;;;;;-146.58;100.00;69501.63;5033395;28;20052;-67
2023/06/27 02:57:46;;;;;;;7.45;6.75;;;;;;;-146.58;100.00;69501.63;5032977;28;20366;-67
2023/06/27 03:00:11;;;;;;;12.43;8.48;;;;;;;-146.58;100.00;69501.63;5031636;28;20036;-67
2023/06/27 03:02:37;;;;;;;10.80;6.10;;;;;;;-146.58;100.00;69501.63;5032760;28;20064;-66
2023/06/27 03:05:02;;;;;;;13.00;6.75;;;;;;;-146.58;100.00;69501.63;5030970;28;20046;-67
2023/06/27 03:07:28;;;;;;;8.88;7.35;;;;;;;-146.58;100.00;69501.63;5033172;28;20037;-66
2023/06/27 03:09:53;;;;;;;10.80;7.05;;;;;;;-146.58;100.00;69501.63;5031231;28;20048;-67
2023/06/27 03:12:18;;;;;;;8.13;7.03;;;;;;;-146.58;100.00;69501.63;5032529;28;20029;-66
2023/06/27 03:14:44;;;;;;;11.15;6.60;;;;;;;-146.58;100.00;69501.63;5031165;28;20033;-67
2023/06/27 03:17:09;;;;;;;9.65;6.05;;;;;;;-146.58;100.00;69501.63;5032697;28;20357;-67
2023/06/27 03:19:34;;;;;;;7.30;6.18;;;;;;;-146.58;100.00;69501.63;5030906;28;20048;-67
2023/06/27 03:22:00;;;;;;;13.60;6.60;;;;;;;-146.58;100.00;69501.63;5032478;28;20092;-67
2023/06/27 03:24:25;;;;;;;10.45;7.40;;;;;;;-146.58;100.00;69501.63;5031411;28;20042;-68
2023/06/27 03:26:50;;;;;;;11.00;6.50;;;;;;;-146.58;100.00;69501.63;5032062;28;20033;-67
2023/06/27 03:29:16;;;;;;;11.38;7.25;;;;;;;-146.58;100.00;69501.63;5031304;28;20029;-67
2023/06/27 03:31:41;;;;;;;9.95;7.53;;;;;;;-146.58;100.00;69501.63;5032262;28;20021;-68
2023/06/27 03:34:06;;;;;;;10.02;7.78;;;;;;;-146.58;100.00;69501.63;5030550;28;20056;-66
2023/06/27 03:36:35;;;;;;;17.13;6.35;;;;;;;-146.58;100.00;69501.63;5032504;28;20021;-66
2023/06/27 03:39:00;;;;;;;7.47;6.65;;;;;;;-146.58;100.00;69501.63;5030814;28;20037;-66
2023/06/27 03:41:26;;;;;;;9.40;5.75;;;;;;;-146.58;100.00;69501.63;5032094;28;20388;-66
2023/06/27 03:43:52;;;;;;;20.02;6.57;;;;;;;-146.58;100.00;69501.63;5030443;28;20063;-67
2023/06/27 03:46:17;;;;;;;7.10;6.10;;;;;;;-146.58;100.00;69501.63;5031430;28;20484;-69
2023/06/27 03:48:43;;;;;;;10.35;7.35;;;;;;;-146.58;100.00;69501.63;5029128;28;20397;-66
2023/06/27 03:51:08;;;;;;;12.70;7.43;;;;;;;-146.58;100.00;69501.63;5031095;28;20034;-66
2023/06/27 03:53:33;;;;;;;11.88;7.13;;;;;;;-146.58;100.00;69501.63;5029803;28;20045;-68
2023/06/27 03:56:02;;;;;;;8.35;7.50;;;;;;;-146.58;100.00;69501.63;5029120;28;20099;-68
2023/06/27 03:58:27;;;;;;;13.00;9.20;;;;;;;-146.58;100.00;69501.63;5028663;28;20593;-68
2023/06/27 04:00:53;;;;;;;16.15;7.75;;;;;;;-146.58;100.00;69501.63;5030517;28;20025;-68
2023/06/27 04:03:19;;;;;;;9.98;7.32;;;;;;;-146.58;100.00;69501.63;5029197;28;20125;-68
2023/06/27 04:05:44;;;;;;;14.70;8.43;;;;;;;-146.58;100.00;69501.63;5032028;28;20025;-68
2023/06/27 04:08:10;;;;;;;12.25;8.27;;;;;;;-146.58;100.00;69501.63;5030155;28;20050;-68
2023/06/27 04:10:35;;;;;;;15.20;7.28;;;;;;;-146.58;100.00;69501.63;5031348;28;20022;-68
2023/06/27 04:13:00;;;;;;;14.40;8.52;;;;;;;-146.58;100.00;69501.63;5029877;28;20455;-69
2023/06/27 04:15:26;;;;;;;16.95;9.15;;;;;;;-146.58;100.00;69501.63;5031673;28;20082;-69
2023/06/27 04:17:51;;;;;;;10.25;8.32;;;;;;;-146.58;100.00;69501.63;5029281;28;20029;-71
2023/06/27 04:20:17;;;;;;;13.10;7.97;;;;;;;-146.58;100.00;69501.63;5031500;28;20017;-73
2023/06/27 04:22:42;;;;;;;26.40;10.18;;;;;;;-146.58;100.00;69501.63;5031493;28;20112;-67
2023/06/27 04:25:10;;;;;;;44.13;11.52;;;;;;;-146.58;100.00;69501.63;5029340;28;20045;-67
2023/06/27 04:27:38;;;;;;;10.50;9.30;;;;;;;-146.58;100.00;69501.63;5030305;28;20388;-68
2023/06/27 04:30:04;;;;;;;18.48;10.10;;;;;;;-146.58;100.00;69501.63;5029662;28;20064;-68
2023/06/27 04:32:33;;;;;;;11.88;8.75;;;;;;;-146.58;100.00;69501.63;5031099;28;20029;-67
2023/06/27 04:34:59;;;;;;;10.80;8.75;;;;;;;-146.58;100.00;69501.63;5029715;28;20041;-67
2023/06/27 04:37:24;;;;;;;10.57;9.45;;;;;;;-146.58;100.00;69501.63;5030241;28;20492;-67
2023/06/27 04:39:49;;;;;;;15.65;8.70;;;;;;;-146.58;100.00;69501.63;5029205;28;20040;-67
2023/06/27 04:42:15;;;;;;;11.98;9.73;;;;;;;-146.58;100.00;69501.63;5031267;28;20026;-67
2023/06/27 04:44:40;;;;;;;13.75;8.88;;;;;;;-146.58;100.00;69501.63;5029858;28;20045;-67
2023/06/27 04:47:05;;;;;;;16.38;11.35;;;;;;;-146.58;100.00;69501.63;5030783;28;20087;-67
2023/06/27 04:49:31;;;;;;;14.32;11.45;;;;;;;-146.58;100.00;69501.63;5029856;28;20396;-67
2023/06/27 04:51:56;;;;;;;15.98;10.63;;;;;;;-146.58;100.00;69501.63;5030818;28;20032;-67
2023/06/27 04:54:22;;;;;;;21.05;10.00;;;;;;;-146.58;100.00;69501.63;5029363;28;20041;-67
2023/06/27 04:56:47;;;;;;;14.60;9.25;;;;;;;-146.58;100.00;69501.63;5030012;28;20036;-67
2023/06/27 04:59:12;;;;;;;10.10;7.90;;;;;;;-146.58;100.00;69501.63;5029546;28;20044;-67
2023/06/27 05:01:38;;;;;;;18.55;9.45;;;;;;;-146.58;100.00;69501.63;5031054;28;20461;-67
2023/06/27 05:04:06;;;;;;;14.07;9.40;;;;;;;-146.58;100.00;69501.63;5028822;28;20045;-67
2023/06/27 05:06:32;;;;;;;12.93;9.73;;;;;;;-146.58;100.00;69501.63;5029631;28;20105;-67
2023/06/27 05:08:58;;;;;;;12.65;10.23;;;;;;;-146.58;100.00;69501.63;5018069;28;20038;-67
2023/06/27 05:11:24;;;;;;;18.10;11.55;;;;;;;-146.58;100.00;69501.63;5017043;28;20033;-67
2023/06/27 05:13:49;;;;;;;17.63;9.35;;;;;;;-146.58;100.00;69501.63;5016252;28;20048;-67
2023/06/27 05:16:14;;;;;;;13.30;9.27;;;;;;;-146.58;100.00;69501.63;5018106;28;20041;-67
2023/06/27 05:18:41;;;;;;;21.13;10.40;;;;;;;-146.58;100.00;69501.63;5015208;28;20513;-67
2023/06/27 05:21:07;;;;;;;16.77;9.80;;;;;;;-146.58;100.00;69501.63;5017870;28;20033;-67
2023/06/27 05:23:32;;;;;;;20.48;10.25;;;;;;;-146.58;100.00;69501.63;5018085;28;20049;-67
2023/06/27 05:25:58;;;;;;;21.75;12.15;;;;;;;-146.58;100.00;69501.63;5019158;28;20028;-67
2023/06/27 05:28:23;;;;;;;18.90;8.93;;;;;;;-146.58;100.00;69501.63;5017075;28;20046;-68
2023/06/27 05:30:48;;;;;;;18.05;9.63;;;;;;;-146.58;100.00;69501.63;5022441;28;20021;-67
2023/06/27 05:33:14;;;;;;;16.20;9.50;;;;;;;-146.58;100.00;69501.63;5028986;28;20492;-67
2023/06/27 05:35:39;;;;;;;22.05;11.25;;;;;;;-146.58;100.00;69501.63;5030735;28;20037;-66
2023/06/27 05:38:05;;;;;;;21.98;11.07;;;;;;;-146.58;100.00;69501.63;5028581;28;20021;-67
2023/06/27 05:40:30;;;;;;;20.25;9.85;;;;;;;-146.58;100.00;69501.63;5029915;28;20029;-67
2023/06/27 05:42:55;;;;;;;13.90;10.38;;;;;;;-146.58;100.00;69501.63;5028193;28;20392;-68
2023/06/27 05:45:21;;;;;;;16.73;10.38;;;;;;;-146.58;100.00;69501.63;5030668;28;20128;-67
2023/06/27 05:47:46;;;;;;;18.27;10.05;;;;;;;-146.58;100.00;69501.63;5030087;28;20021;-67
2023/06/27 05:50:11;;;;;;;10.80;7.57;;;;;;;-146.58;100.00;69501.63;5027326;28;20041;-67
2023/06/27 05:52:37;;;;;;;11.90;7.47;;;;;;;-146.58;100.00;69501.63;5030290;28;20279;-67
2023/06/27 05:55:02;;;;;;;17.58;8.20;;;;;;;-146.58;100.00;69501.63;5028507;28;20041;-67
2023/06/27 05:57:28;;;;;;;14.35;8.50;;;;;;;-146.58;100.00;69501.63;5030290;28;20049;-67
2023/06/27 05:59:53;;;;;;;13.73;7.32;;;;;;;-146.58;100.00;69501.63;5028305;28;20128;-67
2023/06/27 06:02:18;;;;;;;17.38;10.10;;;;;;;-146.58;100.00;69501.63;5029356;28;20415;-67
2023/06/27 06:04:44;;;;;;;9.32;6.88;;;;;;;-146.58;100.00;69501.63;5028758;28;20045;-67
2023/06/27 06:07:09;;;;;;;11.50;7.32;;;;;;;-146.58;100.00;69501.63;5031460;28;20265;-67
2023/06/27 06:09:34;;;;;;;8.02;7.07;;;;;;;-146.58;100.00;69501.63;5032055;28;20048;-67
2023/06/27 06:12:00;;;;;;;10.40;6.20;;;;;;;-146.58;100.00;69501.63;5032401;28;20404;-67
2023/06/27 06:14:25;;;;;;;11.65;7.00;;;;;;;-146.58;100.00;69501.63;5027924;28;20037;-67
2023/06/27 06:16:51;;;;;;;8.93;6.28;;;;;;;-146.58;100.00;69501.63;5033390;28;20083;-67
2023/06/27 06:19:16;;;;;;;15.82;8.05;;;;;;;-146.58;100.00;69501.63;5032415;28;20049;-67
2023/06/27 06:21:41;;;;;;;18.92;6.43;;;;;;;-146.58;100.00;69501.63;5033743;28;20017;-67
2023/06/27 06:24:10;;;;;;;9.50;5.95;;;;;;;-146.58;100.00;69501.63;5030251;28;20049;-68
2023/06/27 06:26:36;;;;;;;11.40;6.60;;;;;;;-146.58;100.00;69501.63;5033644;28;20037;-67
2023/06/27 06:29:03;;;;;;;14.65;6.22;;;;;;;-146.58;100.00;69501.63;5031862;28;20049;-67
2023/06/27 06:31:28;;;;;;;15.68;5.68;;;;;;;-146.58;100.00;69501.63;5031940;28;20551;-68
2023/06/27 06:33:55;;;;;;;11.35;4.88;;;;;;;-146.58;100.00;69501.63;5032029;28;20021;-67
2023/06/27 06:36:20;;;;;;;15.18;6.22;;;;;;;-146.58;100.00;69501.63;5033310;28;20029;-67
2023/06/27 06:38:46;;;;;;;23.90;6.85;;;;;;;-146.58;100.00;69501.63;5032404;28;20096;-67
2023/06/27 06:41:11;;;;;;;13.68;5.82;;;;;;;-146.58;100.00;69501.63;5031581;28;20298;-67
2023/06/27 06:43:36;;;;;;;10.55;4.80;;;;;;;-146.58;100.00;69501.63;5033319;28;20025;-67
2023/06/27 06:46:02;;;;;;;16.17;6.63;;;;;;;-146.58;100.00;69501.63;5031407;28;20048;-67
2023/06/27 06:48:27;;;;;;;10.75;4.95;;;;;;;-146.58;100.00;69501.63;5033297;28;20026;-67
2023/06/27 06:50:53;;;;;;;14.05;6.10;;;;;;;-146.58;100.00;69501.63;5031703;28;20554;-67
2023/06/27 06:53:19;;;;;;;11.68;6.90;;;;;;;-146.58;100.00;69501.63;5033074;28;20022;-67
2023/06/27 06:55:44;;;;;;;21.27;7.80;;;;;;;-146.58;100.00;69501.63;5031694;28;20049;-67
2023/06/27 06:58:10;;;;;;;12.25;7.43;;;;;;;-146.58;100.00;69501.63;5033007;28;20029;-67
2023/06/27 07:00:36;;;;;;;11.25;5.63;;;;;;;-146.58;100.00;69501.63;5031500;28;20045;-67
2023/06/27 07:03:01;;;;;;;12.50;6.30;;;;;;;-146.58;100.00;69501.63;5032731;28;20049;-68
2023/06/27 07:05:27;;;;;;;13.75;8.23;;;;;;;-146.58;100.00;69501.63;5031621;28;20040;-67
2023/06/27 07:07:52;;;;;;;16.13;6.13;;;;;;;-146.58;100.00;69501.63;5032346;28;20079;-67
2023/06/27 07:10:17;;;;;;;16.05;6.13;;;;;;;-146.58;100.00;69501.63;5031318;28;20096;-67
2023/06/27 07:12:43;;;;;;;15.15;6.85;;;;;;;-146.58;100.00;69501.63;5033064;28;20480;-67
2023/06/27 07:15:09;;;;;;;18.83;6.70;;;;;;;-146.58;100.00;69501.63;5030770;28;20381;-67
2023/06/27 07:17:34;;;;;;;10.32;6.13;;;;;;;-146.58;100.00;69501.63;5032797;28;20021;-67
2023/06/27 07:20:00;;;;;;;12.02;6.60;;;;;;;-146.58;100.00;69501.63;5030222;28;20041;-67
2023/06/27 07:22:26;;;;;;;19.63;6.13;;;;;;;-146.58;100.00;69501.63;5032431;28;20021;-67
2023/06/27 07:24:51;;;;;;;11.57;6.18;;;;;;;-146.58;100.00;69501.63;5030969;28;20064;-67
2023/06/27 07:27:16;;;;;;;15.02;6.30;;;;;;;-146.58;100.00;69501.63;5032703;28;20108;-67
2023/06/27 07:29:42;;;;;;;21.20;7.95;;;;;;;-146.58;100.00;69501.63;5031132;28;20256;-67
2023/06/27 07:32:09;;;;;;;14.98;5.68;;;;;;;-146.58;100.00;69501.63;5032108;28;20026;-67
2023/06/27 07:34:35;;;;;;;12.32;6.10;;;;;;;-146.58;100.00;69501.63;5031237;28;20038;-67
2023/06/27 07:37:00;;;;;;;12.57;6.32;;;;;;;-146.58;100.00;69501.63;5032035;28;20473;-68
2023/06/27 07:39:25;;;;;;;21.17;6.90;;;;;;;-146.58;100.00;69501.63;5030674;28;20041;-67
2023/06/27 07:41:51;;;;;;;8.95;5.75;;;;;;;-146.58;100.00;69501.63;5030913;28;20026;-67
2023/06/27 07:44:16;;;;;;;14.13;5.65;;;;;;;-146.58;100.00;69501.63;5029492;28;20041;-68
2023/06/27 07:46:41;;;;;;;13.18;7.00;;;;;;;-146.58;100.00;69501.63;5030433;28;20414;-68
2023/06/27 07:49:07;;;;;;;7.10;5.15;;;;;;;-146.58;100.00;69501.63;5028422;28;20045;-67
2023/06/27 07:51:33;;;;;;;16.45;4.72;;;;;;;-146.58;100.00;69501.63;5031672;28;20033;-67
2023/06/27 07:54:00;;;;;;;15.85;6.22;;;;;;;-146.58;100.00;69501.63;5029961;28;20049;-67
2023/06/27 07:56:26;;;;;;;13.48;3.88;;;;;;;-146.58;100.00;69501.63;5031982;28;20049;-68
2023/06/27 07:58:51;;;;;;;8.82;4.05;;;;;;;-146.58;100.00;69501.63;5030126;28;20037;-68
2023/06/27 08:01:17;;;;;;;7.97;4.32;;;;;;;-146.58;100.00;69501.63;5031812;28;20117;-67
2023/06/27 08:03:42;;;;;;;12.05;5.00;;;;;;;-146.58;100.00;69501.63;5028931;28;20053;-67
2023/06/27 08:06:07;;;;;;;13.05;2.80;;;;;;;-146.58;100.00;69501.63;5031228;28;20029;-68
2023/06/27 08:08:33;;;;;;;5.70;3.85;;;;;;;-146.58;100.00;69501.63;5030115;28;20420;-67
2023/06/27 08:10:58;;;;;;;7.25;3.15;;;;;;;-146.58;100.00;69501.63;5031527;28;20021;-67
2023/06/27 08:13:24;;;;;;;9.35;5.15;;;;;;;-146.58;100.00;69501.63;5030285;28;20041;-66
2023/06/27 08:15:50;;;;;;;5.22;3.00;;;;;;;-146.58;100.00;69501.63;5031251;28;20017;-66
2023/06/27 08:18:15;;;;;;;10.05;4.35;;;;;;;-146.58;100.00;69501.63;5030369;28;20124;-66
2023/06/27 08:20:41;;;;;;;8.88;4.30;;;;;;;-146.58;100.00;69501.63;5031623;28;20140;-65
2023/06/27 08:23:06;;;;;;;4.82;2.22;;;;;;;-146.58;100.00;69501.63;5029297;28;20033;-66
2023/06/27 08:25:32;;;;;;;15.38;4.65;;;;;;;-146.58;100.00;69501.63;5031586;28;20480;-66
2023/06/27 08:27:57;;;;;;;10.10;4.13;;;;;;;-146.58;100.00;69501.63;5029852;28;20029;-66
2023/06/27 08:30:23;;;;;;;7.07;2.88;;;;;;;-146.58;100.00;69501.63;5030207;28;20044;-66
2023/06/27 08:32:48;;;;;;;25.88;5.80;;;;;;;-146.58;100.00;69501.63;5024802;28;20022;-67
2023/06/27 08:35:14;;;;;;;12.50;4.07;;;;;;;-146.58;100.00;69501.63;5009612;28;20041;-66
2023/06/27 08:37:39;;;;;;;8.85;4.72;;;;;;;-146.58;100.00;69501.63;5011231;28;20018;-66
2023/06/27 08:40:05;;;;;;;7.95;2.63;;;;;;;-146.58;100.00;69501.63;5010034;28;20038;-66
2023/06/27 08:42:32;;;;;;;11.40;2.47;;;;;;;-146.58;100.00;69501.63;5011426;28;20175;-66
2023/06/27 08:44:58;;;;;;;3.50;2.72;;;;;;;-146.58;100.00;69501.63;5013146;28;20036;-66
2023/06/27 08:47:26;;;;;;;4.47;2.35;;;;;;;-146.58;100.00;69501.63;5031289;28;20025;-66
2023/06/27 08:50:00;;;;;;;8.40;2.55;;;;;;;-146.58;100.00;69501.63;5029370;28;20045;-66
2023/06/27 08:52:27;;;;;;;9.35;2.78;;;;;;;-146.58;100.00;69501.63;5030728;28;20523;-66
2023/06/27 08:54:55;;;;;;;19.55;3.00;;;;;;;-146.58;100.00;69501.63;5029410;28;20510;-65
2023/06/27 08:57:26;;;;;;;8.10;2.13;;;;;;;-146.58;100.00;69501.63;5031115;28;20075;-65
2023/06/27 08:59:54;;;;;;;3.97;1.90;;;;;;;-146.58;100.00;69501.63;5029027;28;20072;-66
2023/06/27 09:02:20;;;;;;;8.35;3.42;;;;;;;-146.58;100.00;69501.63;5030905;28;20049;-66
2023/06/27 09:04:46;;;;;;;6.88;2.03;;;;;;;-146.58;100.00;69501.63;5029172;28;20077;-66
2023/06/27 09:07:12;;;;;;;7.95;2.95;;;;;;;-146.58;100.00;69501.63;5030619;28;20056;-66
2023/06/27 09:09:38;;;;;;;5.03;2.03;;;;;;;-146.58;100.00;69501.63;5029441;28;20555;-65
2023/06/27 09:12:04;;;;;;;3.80;2.28;;;;;;;-146.58;100.00;69501.63;5030653;28;20031;-65
2023/06/27 09:14:30;;;;;;;6.78;2.90;;;;;;;-146.58;100.00;69501.63;5028984;28;20045;-64
2023/06/27 09:16:55;;;;;;;5.22;2.22;;;;;;;-146.58;100.00;69501.63;5030674;28;20500;-64
2023/06/27 09:19:21;;;;;;;7.13;2.63;;;;;;;-146.58;100.00;69501.63;5029394;28;20416;-64
2023/06/27 09:21:48;;;;;;;5.93;2.30;;;;;;;-146.58;100.00;69501.63;5030132;28;20017;-64
2023/06/27 09:24:14;;;;;;;5.32;2.20;;;;;;;-146.58;100.00;69501.63;5029154;28;20091;-64
2023/06/27 09:26:40;;;;;;;8.15;4.43;;;;;;;-146.58;100.00;69501.63;5030870;28;20025;-64
2023/06/27 09:29:08;;;;;;;10.07;2.35;;;;;;;23.21;100.00;166644.31;5028698;28;20578;-64
2023/06/27 09:31:34;;;;;;;4.10;1.38;;;;;;;23.64;100.00;166758.56;5030408;28;20039;-63
2023/06/27 09:34:07;;;;;;;6.47;2.00;;;;;;;23.82;100.00;166804.75;5028852;28;20053;-64
2023/06/27 09:36:34;;;;;;;5.90;2.10;;;;;;;23.99;100.00;166851.06;5030362;28;20080;-64
2023/06/27 09:39:03;;;;;;;6.17;2.20;;;;;;;24.18;100.00;166900.00;5028958;28;20041;-64
2023/06/27 09:41:49;;;;;;;6.72;2.50;;;;;;;24.12;100.00;166885.06;5030802;28;20436;-64
2023/06/27 09:44:18;;;;;;;3.70;2.40;;;;;;;23.73;100.00;166783.00;5032592;28;20041;-63
2023/06/27 09:46:44;;;;;;;4.40;1.38;;;;;;;23.42;100.00;166700.06;5034438;28;20036;-63
2023/06/27 09:49:10;;;;;;;4.57;1.40;;;;;;;23.45;100.00;166709.59;5032728;28;20033;-65
2023/06/27 09:51:36;;;;;;;7.22;2.17;;;;;;;23.33;100.00;166675.59;5034112;28;20031;-65
2023/06/27 09:54:02;;;;;;;8.60;2.58;;;;;;;22.95;100.00;166577.69;5032737;28;20524;-65
2023/06/27 09:56:31;;;;;;;17.60;4.75;;;;;;;22.72;100.00;166515.16;5034513;28;20040;-65
2023/06/27 09:59:07;;;;;;;10.30;2.53;;;;;;;22.43;100.00;166440.44;5032228;28;20037;-65
2023/06/27 10:01:34;;;;;;;7.38;3.10;;;;;;;22.66;100.00;166500.25;5034150;28;20109;-65
2023/06/27 10:04:00;;;;;;;3.47;1.70;;;;;;;22.37;100.00;166424.09;5032259;28;20050;-65
2023/06/27 10:06:25;;;;;;;5.50;2.05;;;;;;;22.32;100.00;166410.47;5033926;28;20021;-65
2023/06/27 10:08:51;;;;;;;4.68;1.80;;;;;;;22.54;100.00;166467.59;5032327;28;20107;-65
2023/06/27 10:11:16;;;;;;;2.78;2.03;;;;;;;22.60;100.00;166483.94;5032504;28;20472;-65
2023/06/27 10:13:42;;;;;;;2.42;1.40;;;;;;;22.34;100.00;166415.91;5030346;28;20041;-65
2023/06/27 10:16:07;;;;;;;6.25;3.85;;;;;;;22.32;100.00;166411.84;5032883;28;20049;-65
2023/06/27 10:18:33;;;;;;;5.60;1.55;;;;;;;22.12;100.00;166358.84;5031831;28;20041;-65
2023/06/27 10:20:58;;;;;;;1.95;1.58;;;;;;;22.07;100.00;166345.28;5031636;28;20014;-65
2023/06/27 10:23:25;;;;;;;3.47;1.00;;;;;;;21.74;100.00;166258.31;5031754;28;20037;-65
2023/06/27 10:25:52;;;;;;;4.93;1.92;;;;;;;21.46;100.00;166184.94;5033064;28;20032;-65
2023/06/27 10:28:19;;;;;;;3.47;1.65;;;;;;;21.83;100.00;166282.78;5030593;28;20041;-65
2023/06/27 10:30:46;;;;;;;5.30;1.80;;;;;;;21.83;100.00;166281.41;5032458;28;20136;-65
2023/06/27 10:33:27;;;;;;;4.13;1.83;;;;;;;21.77;100.00;166266.50;5031714;28;20037;-65
2023/06/27 10:35:57;;;;;;;4.85;1.73;;;;;;;22.26;100.00;166394.16;5030972;28;20053;-65
2023/06/27 10:38:23;;;;;;;6.68;1.42;;;;;;;22.87;100.00;166554.59;5030822;28;20102;-64
2023/06/27 10:41:02;;;;;;;5.43;2.15;;;;;;;23.17;100.00;166634.81;5032850;28;20595;-64
2023/06/27 10:43:45;;;;;;;3.70;1.45;;;;;;;23.52;100.00;166725.91;5030970;28;20041;-66
2023/06/27 10:46:18;;;;;;;29.80;2.80;;;;;;;24.02;100.00;166857.84;5032453;28;20718;-64
2023/06/27 10:48:48;;;;;;;5.47;2.15;;;;;;;-146.58;100.00;69501.63;5031171;28;20103;-64
2023/06/27 10:51:16;;;;;;;8.38;1.42;;;;;;;24.45;100.00;166970.75;5032665;28;20029;-64
2023/06/27 10:53:43;;;;;;;2.08;1.33;;;;;;;24.28;100.00;166925.84;5030651;28;20069;-64
2023/06/27 10:56:28;;;;;;;12.27;2.13;;;;;;;23.76;100.00;166791.19;5031344;28;20030;-64
2023/06/27 10:58:58;;;;;;;3.83;1.70;;;;;;;23.30;100.00;166668.81;5030894;28;20451;-65
2023/06/27 11:01:24;;;;;;;2.30;1.33;;;;;;;23.06;100.00;166606.22;5032924;28;20515;-64
2023/06/27 11:03:56;;;;;;;2.63;1.67;;;;;;;22.70;100.00;166509.75;5030863;28;20045;-64